Time;durP1;ratioP1;P1;durP2;ratioP2;P2;SDS_P1;SDS_P2;PMS_P1;PMS_P2;Temp;Humidity;BMP_temperature;BMP_pressure;BME280_temperature;BME280_humidity;BME280_pressure;Samples;Min_cycle;Max_cycle;Signal;HPM_P1;HPM_P2
2022/07/23 00:00:08;;;;;;;1.98;1.87;;;;;;;;;;1890832;75;26581;-88
2022/07/23 00:02:36;;;;;;;2.08;2.00;;;;;;;;;;1892110;75;26205;-88
2022/07/23 00:05:03;;;;;;;2.00;1.98;;;;;;;;;;1881028;75;26229;-88
2022/07/23 00:07:31;;;;;;;1.95;1.95;;;;;;;;;;1870715;75;26284;-88
2022/07/23 00:09:58;;;;;;;2.15;2.05;;;;;;;;;;1885542;75;26206;-88
2022/07/23 00:12:25;;;;;;;2.20;2.10;;;;;;;;;;1888032;75;26223;-88
2022/07/23 00:14:53;;;;;;;2.00;1.90;;;;;;;;;;1881699;74;26180;-88
2022/07/23 00:17:20;;;;;;;1.90;1.90;;;;;;;;;;1882077;75;26205;-87
2022/07/23 00:19:47;;;;;;;2.08;1.98;;;;;;;;;;1887191;76;26232;-88
2022/07/23 00:22:14;;;;;;;2.12;2.05;;;;;;;;;;1886856;75;27198;-88
2022/07/23 00:24:42;;;;;;;2.17;2.15;;;;;;;;;;1882244;75;26280;-88
2022/07/23 00:27:09;;;;;;;1.95;1.92;;;;;;;;;;1889934;75;26230;-86
2022/07/23 00:29:36;;;;;;;2.10;2.00;;;;;;;;;;1888653;75;26267;-86
2022/07/23 00:32:04;;;;;;;1.95;1.95;;;;;;;;;;1892972;76;26243;-88
2022/07/23 00:34:31;;;;;;;2.25;2.15;;;;;;;;;;1885475;75;26306;-87
2022/07/23 00:36:58;;;;;;;2.22;2.12;;;;;;;;;;1884766;75;26251;-87
2022/07/23 00:39:25;;;;;;;1.82;1.82;;;;;;;;;;1890477;75;26171;-88
2022/07/23 00:41:53;;;;;;;2.17;2.08;;;;;;;;;;1881860;75;26611;-88
2022/07/23 00:44:21;;;;;;;2.20;2.10;;;;;;;;;;1892003;75;26670;-87
2022/07/23 00:46:52;;;;;;;2.00;1.90;;;;;;;;;;1879032;75;26265;-88
2022/07/23 00:49:20;;;;;;;2.20;2.10;;;;;;;;;;1876673;75;26183;-87
2022/07/23 00:51:48;;;;;;;2.30;2.20;;;;;;;;;;1886599;75;26214;-87
2022/07/23 00:54:16;;;;;;;2.33;2.22;;;;;;;;;;1889919;75;26269;-87
2022/07/23 00:56:44;;;;;;;2.00;1.92;;;;;;;;;;1886415;75;26212;-86
2022/07/23 00:59:11;;;;;;;2.30;2.20;;;;;;;;;;1886800;75;26246;-87
2022/07/23 01:01:39;;;;;;;2.33;2.22;;;;;;;;;;1876636;75;26186;-87
2022/07/23 01:04:06;;;;;;;2.17;2.10;;;;;;;;;;1885121;75;26197;-87
2022/07/23 01:06:35;;;;;;;2.42;2.30;;;;;;;;;;1864533;74;26591;-86
2022/07/23 01:09:04;;;;;;;2.40;2.30;;;;;;;;;;1879100;76;27085;-87
2022/07/23 01:11:33;;;;;;;2.40;2.30;;;;;;;;;;1870487;75;26997;-87
2022/07/23 01:14:00;;;;;;;2.20;2.10;;;;;;;;;;1868165;75;27025;-88
2022/07/23 01:16:27;;;;;;;2.40;2.30;;;;;;;;;;1887178;75;26192;-87
2022/07/23 01:18:54;;;;;;;2.60;2.40;;;;;;;;;;1876281;75;26184;-87
2022/07/23 01:21:22;;;;;;;2.22;2.12;;;;;;;;;;1880082;75;26312;-88
2022/07/23 01:23:49;;;;;;;2.70;2.50;;;;;;;;;;1878134;75;26624;-87
2022/07/23 01:26:17;;;;;;;2.22;2.12;;;;;;;;;;1876882;74;26390;-87
2022/07/23 01:28:44;;;;;;;2.40;2.30;;;;;;;;;;1876790;76;26608;-87
2022/07/23 01:31:12;;;;;;;2.33;2.22;;;;;;;;;;1880396;75;26238;-88
2022/07/23 01:33:39;;;;;;;2.50;2.40;;;;;;;;;;1895648;75;26852;-88
2022/07/23 01:36:07;;;;;;;2.60;2.42;;;;;;;;;;1893375;76;26314;-87
2022/07/23 01:38:34;;;;;;;2.80;2.60;;;;;;;;;;1903811;75;26236;-87
2022/07/23 01:41:01;;;;;;;2.50;2.30;;;;;;;;;;1898947;75;26256;-87
2022/07/23 01:43:28;;;;;;;2.50;2.30;;;;;;;;;;1891230;75;26235;-88
2022/07/23 01:45:56;;;;;;;2.60;2.40;;;;;;;;;;1885153;75;25724;-87
2022/07/23 01:48:23;;;;;;;2.30;2.20;;;;;;;;;;1876310;75;26611;-88
2022/07/23 01:50:50;;;;;;;2.50;2.30;;;;;;;;;;1893002;75;26199;-87
2022/07/23 01:53:18;;;;;;;2.50;2.30;;;;;;;;;;1895658;75;26192;-87
2022/07/23 01:55:45;;;;;;;2.40;2.30;;;;;;;;;;1890775;75;26159;-88
2022/07/23 01:58:12;;;;;;;2.60;2.40;;;;;;;;;;1884565;75;26192;-88
2022/07/23 02:00:40;;;;;;;2.70;2.50;;;;;;;;;;1880486;76;26160;-87
2022/07/23 02:03:07;;;;;;;2.90;2.70;;;;;;;;;;1881361;75;26252;-89
2022/07/23 02:05:34;;;;;;;2.65;2.45;;;;;;;;;;1878505;75;26288;-88
2022/07/23 02:08:01;;;;;;;2.60;2.40;;;;;;;;;;1897355;75;26716;-87
2022/07/23 02:10:29;;;;;;;2.30;2.20;;;;;;;;;;1898039;75;26583;-87
2022/07/23 02:12:56;;;;;;;2.47;2.27;;;;;;;;;;1888645;75;26237;-87
2022/07/23 02:15:23;;;;;;;2.50;2.30;;;;;;;;;;1885853;75;26314;-87
2022/07/23 02:17:50;;;;;;;2.45;2.35;;;;;;;;;;1893106;75;26260;-87
2022/07/23 02:20:18;;;;;;;2.37;2.27;;;;;;;;;;1882419;75;25684;-87
2022/07/23 02:22:45;;;;;;;2.40;2.30;;;;;;;;;;1884303;75;26172;-87
2022/07/23 02:25:13;;;;;;;2.37;2.27;;;;;;;;;;1882086;75;26196;-88
2022/07/23 02:27:40;;;;;;;2.20;2.10;;;;;;;;;;1885108;75;26179;-86
2022/07/23 02:30:08;;;;;;;2.33;2.12;;;;;;;;;;1870268;74;26186;-86
2022/07/23 02:32:36;;;;;;;2.20;2.10;;;;;;;;;;1879097;75;26179;-86
2022/07/23 02:35:04;;;;;;;2.37;2.27;;;;;;;;;;1881536;75;26193;-88
2022/07/23 02:37:31;;;;;;;1.90;1.80;;;;;;;;;;1892555;76;26219;-88
2022/07/23 02:39:58;;;;;;;2.05;1.95;;;;;;;;;;1878799;75;26683;-88
2022/07/23 02:42:26;;;;;;;1.90;1.80;;;;;;;;;;1887939;75;26611;-88
2022/07/23 02:44:53;;;;;;;2.00;1.90;;;;;;;;;;1890246;75;27074;-87
2022/07/23 02:47:20;;;;;;;2.00;1.90;;;;;;;;;;1874892;75;27291;-86
2022/07/23 02:49:47;;;;;;;1.82;1.75;;;;;;;;;;1872111;76;26255;-88
2022/07/23 02:52:15;;;;;;;1.80;1.70;;;;;;;;;;1871163;75;26197;-86
2022/07/23 02:54:42;;;;;;;2.10;2.00;;;;;;;;;;1875845;75;26223;-87
2022/07/23 02:57:09;;;;;;;1.95;1.85;;;;;;;;;;1878536;75;26212;-86
2022/07/23 02:59:36;;;;;;;1.80;1.70;;;;;;;;;;1881063;75;26198;-88
2022/07/23 03:02:04;;;;;;;1.87;1.77;;;;;;;;;;1889705;75;26226;-88
2022/07/23 03:04:31;;;;;;;1.70;1.60;;;;;;;;;;1877497;75;26179;-88
2022/07/23 03:06:58;;;;;;;1.47;1.47;;;;;;;;;;1869073;75;26706;-88
2022/07/23 03:09:25;;;;;;;1.65;1.57;;;;;;;;;;1878127;75;26198;-87
2022/07/23 03:11:53;;;;;;;1.80;1.70;;;;;;;;;;1869720;75;26315;-88
2022/07/23 03:14:20;;;;;;;1.60;1.60;;;;;;;;;;1856168;74;26304;-87
2022/07/23 03:16:49;;;;;;;1.65;1.55;;;;;;;;;;1888339;76;26272;-87
2022/07/23 03:19:16;;;;;;;1.77;1.67;;;;;;;;;;1898045;75;26624;-88
2022/07/23 03:21:43;;;;;;;1.42;1.42;;;;;;;;;;1868331;75;26217;-86
2022/07/23 03:24:11;;;;;;;1.30;1.30;;;;;;;;;;1877284;75;26259;-86
2022/07/23 03:26:39;;;;;;;1.22;1.22;;;;;;;;;;1879318;72;26276;-86
2022/07/23 03:29:06;;;;;;;1.20;1.20;;;;;;;;;;1893765;74;26203;-84
2022/07/23 03:31:34;;;;;;;1.50;1.50;;;;;;;;;;1877397;73;26238;-87
2022/07/23 03:34:01;;;;;;;1.30;1.30;;;;;;;;;;1892933;74;26193;-86
2022/07/23 03:36:28;;;;;;;1.25;1.25;;;;;;;;;;1888424;72;26231;-86
2022/07/23 03:38:55;;;;;;;1.37;1.37;;;;;;;;;;1898503;73;26190;-85
2022/07/23 03:41:23;;;;;;;1.30;1.30;;;;;;;;;;1887095;73;26302;-86
2022/07/23 03:43:50;;;;;;;1.25;1.25;;;;;;;;;;1867163;76;26215;-87
2022/07/23 03:46:17;;;;;;;1.27;1.27;;;;;;;;;;1897769;75;26208;-88
2022/07/23 03:48:44;;;;;;;1.20;1.20;;;;;;;;;;1893148;75;26195;-88
2022/07/23 03:51:12;;;;;;;1.30;1.30;;;;;;;;;;1879280;75;26242;-88
2022/07/23 03:53:39;;;;;;;1.05;1.05;;;;;;;;;;1874075;75;26206;-87
2022/07/23 03:56:06;;;;;;;1.00;1.00;;;;;;;;;;1867094;75;27035;-88
2022/07/23 03:58:34;;;;;;;1.07;1.07;;;;;;;;;;1884369;75;26160;-87
2022/07/23 04:01:01;;;;;;;1.20;1.20;;;;;;;;;;1873193;75;26203;-89
2022/07/23 04:03:29;;;;;;;0.90;0.90;;;;;;;;;;1882045;76;26599;-87
2022/07/23 04:05:56;;;;;;;0.90;0.90;;;;;;;;;;1869913;76;26276;-88
2022/07/23 04:08:23;;;;;;;1.07;1.07;;;;;;;;;;1876451;75;26619;-87
2022/07/23 04:10:51;;;;;;;1.10;1.10;;;;;;;;;;1879739;76;26252;-88
2022/07/23 04:13:18;;;;;;;0.90;0.90;;;;;;;;;;1886101;75;26340;-88
2022/07/23 04:15:45;;;;;;;0.82;0.82;;;;;;;;;;1879613;76;27029;-88
2022/07/23 04:18:13;;;;;;;1.00;1.00;;;;;;;;;;1869950;75;26280;-88
2022/07/23 04:20:40;;;;;;;0.93;0.93;;;;;;;;;;1895441;75;26239;-89
2022/07/23 04:23:07;;;;;;;1.00;1.00;;;;;;;;;;1894668;75;26215;-89
2022/07/23 04:25:34;;;;;;;0.80;0.80;;;;;;;;;;1895932;75;26293;-87
2022/07/23 04:28:02;;;;;;;0.93;0.93;;;;;;;;;;1900769;75;26281;-88
2022/07/23 04:30:29;;;;;;;0.85;0.85;;;;;;;;;;1892794;75;26198;-86
2022/07/23 04:32:56;;;;;;;0.93;0.93;;;;;;;;;;1884776;75;26221;-87
2022/07/23 04:35:24;;;;;;;0.72;0.72;;;;;;;;;;1883612;75;26284;-88
2022/07/23 04:37:51;;;;;;;0.80;0.80;;;;;;;;;;1879416;75;26202;-88
2022/07/23 04:40:18;;;;;;;0.90;0.90;;;;;;;;;;1882257;75;26179;-88
2022/07/23 04:42:45;;;;;;;0.70;0.70;;;;;;;;;;1879471;75;26195;-87
2022/07/23 04:45:13;;;;;;;0.75;0.75;;;;;;;;;;1884856;76;26206;-88
2022/07/23 04:47:40;;;;;;;0.68;0.68;;;;;;;;;;1876840;75;26161;-86
2022/07/23 04:50:07;;;;;;;0.60;0.60;;;;;;;;;;1876716;76;26220;-88
2022/07/23 04:52:34;;;;;;;0.88;0.88;;;;;;;;;;1874624;75;26179;-86
2022/07/23 04:55:02;;;;;;;0.70;0.70;;;;;;;;;;1883716;73;26199;-87
2022/07/23 04:57:29;;;;;;;0.70;0.70;;;;;;;;;;1878288;75;26472;-86
2022/07/23 04:59:57;;;;;;;0.70;0.70;;;;;;;;;;1885189;75;26724;-88
2022/07/23 05:02:24;;;;;;;0.70;0.70;;;;;;;;;;1886664;76;26695;-88
2022/07/23 05:04:51;;;;;;;0.80;0.80;;;;;;;;;;1880981;76;26691;-87
2022/07/23 05:07:19;;;;;;;0.70;0.70;;;;;;;;;;1883281;75;26284;-87
2022/07/23 05:09:46;;;;;;;0.65;0.65;;;;;;;;;;1877589;75;26660;-87
2022/07/23 05:12:13;;;;;;;0.65;0.65;;;;;;;;;;1896291;76;26604;-88
2022/07/23 05:14:40;;;;;;;0.80;0.80;;;;;;;;;;1865166;75;26652;-87
2022/07/23 05:17:08;;;;;;;0.70;0.70;;;;;;;;;;1893052;75;26788;-87
2022/07/23 05:19:35;;;;;;;0.60;0.60;;;;;;;;;;1880663;75;26266;-86
2022/07/23 05:22:03;;;;;;;0.60;0.60;;;;;;;;;;1893392;76;26652;-89
2022/07/23 05:24:30;;;;;;;0.60;0.60;;;;;;;;;;1883298;75;26230;-86
2022/07/23 05:26:57;;;;;;;0.60;0.60;;;;;;;;;;1894837;75;25417;-87
2022/07/23 05:29:24;;;;;;;0.62;0.62;;;;;;;;;;1896469;75;26260;-87
2022/07/23 05:31:52;;;;;;;0.57;0.57;;;;;;;;;;1899495;75;26240;-87
2022/07/23 05:34:19;;;;;;;0.50;0.50;;;;;;;;;;1893528;75;26226;-86
2022/07/23 05:36:46;;;;;;;0.50;0.50;;;;;;;;;;1894429;75;26272;-87
2022/07/23 05:39:14;;;;;;;0.60;0.60;;;;;;;;;;1877024;75;26281;-87
2022/07/23 05:41:41;;;;;;;0.55;0.55;;;;;;;;;;1889702;75;26200;-86
2022/07/23 05:44:08;;;;;;;0.60;0.60;;;;;;;;;;1876401;75;26203;-87
2022/07/23 05:46:35;;;;;;;0.50;0.50;;;;;;;;;;1885033;76;26190;-86
2022/07/23 05:49:03;;;;;;;0.50;0.50;;;;;;;;;;1882577;75;26274;-87
2022/07/23 05:51:30;;;;;;;0.55;0.55;;;;;;;;;;1883525;75;26265;-88
2022/07/23 05:53:57;;;;;;;0.60;0.60;;;;;;;;;;1872891;76;26296;-89
2022/07/23 05:56:24;;;;;;;0.50;0.50;;;;;;;;;;1888940;75;26626;-89
2022/07/23 05:58:52;;;;;;;0.60;0.60;;;;;;;;;;1881589;75;26740;-88
2022/07/23 06:01:19;;;;;;;0.50;0.50;;;;;;;;;;1886932;75;26172;-86
2022/07/23 06:03:46;;;;;;;0.60;0.60;;;;;;;;;;1886034;76;26165;-88
2022/07/23 06:06:14;;;;;;;0.47;0.47;;;;;;;;;;1874188;75;26292;-87
2022/07/23 06:08:41;;;;;;;0.60;0.60;;;;;;;;;;1889967;75;26214;-87
2022/07/23 06:11:08;;;;;;;0.50;0.50;;;;;;;;;;1875196;75;26642;-87
2022/07/23 06:13:36;;;;;;;0.60;0.60;;;;;;;;;;1878933;75;26180;-87
2022/07/23 06:16:03;;;;;;;0.60;0.60;;;;;;;;;;1890835;75;26288;-87
2022/07/23 06:18:30;;;;;;;0.70;0.70;;;;;;;;;;1889663;75;26191;-87
2022/07/23 06:20:57;;;;;;;0.62;0.62;;;;;;;;;;1877846;75;26183;-86
2022/07/23 06:23:25;;;;;;;0.50;0.50;;;;;;;;;;1881750;75;26257;-87
2022/07/23 06:25:52;;;;;;;0.50;0.50;;;;;;;;;;1891814;75;26281;-88
2022/07/23 06:28:19;;;;;;;0.50;0.50;;;;;;;;;;1878362;75;26195;-87
2022/07/23 06:30:47;;;;;;;0.60;0.60;;;;;;;;;;1894886;75;26183;-87
2022/07/23 06:33:14;;;;;;;0.53;0.53;;;;;;;;;;1881779;75;26281;-87
2022/07/23 06:35:41;;;;;;;0.65;0.65;;;;;;;;;;1892899;75;26656;-87
2022/07/23 06:38:08;;;;;;;0.70;0.70;;;;;;;;;;1895462;75;26297;-87
2022/07/23 06:40:36;;;;;;;0.50;0.50;;;;;;;;;;1875110;76;26291;-86
2022/07/23 06:43:03;;;;;;;0.60;0.60;;;;;;;;;;1897788;74;26272;-88
2022/07/23 06:45:30;;;;;;;0.40;0.40;;;;;;;;;;1889428;75;26311;-87
2022/07/23 06:47:58;;;;;;;0.57;0.57;;;;;;;;;;1883733;75;26688;-86
2022/07/23 06:50:25;;;;;;;0.55;0.55;;;;;;;;;;1880680;75;26228;-87
2022/07/23 06:52:52;;;;;;;0.50;0.50;;;;;;;;;;1876676;75;26256;-85
2022/07/23 06:55:19;;;;;;;0.60;0.60;;;;;;;;;;1886467;75;26230;-87
2022/07/23 06:57:47;;;;;;;0.68;0.68;;;;;;;;;;1876463;75;26190;-88
2022/07/23 07:00:14;;;;;;;0.55;0.55;;;;;;;;;;1885384;76;26264;-85
2022/07/23 07:02:41;;;;;;;0.50;0.50;;;;;;;;;;1880323;75;26272;-86
2022/07/23 07:05:09;;;;;;;0.47;0.47;;;;;;;;;;1870804;75;26618;-87
2022/07/23 07:07:36;;;;;;;0.57;0.57;;;;;;;;;;1864682;75;26206;-87
2022/07/23 07:10:04;;;;;;;0.40;0.40;;;;;;;;;;1890391;76;26219;-88
2022/07/23 07:12:31;;;;;;;0.50;0.50;;;;;;;;;;1876855;75;26226;-87
2022/07/23 07:14:58;;;;;;;0.50;0.50;;;;;;;;;;1862876;75;26211;-88
2022/07/23 07:17:25;;;;;;;0.50;0.50;;;;;;;;;;1880048;75;26185;-88
2022/07/23 07:19:53;;;;;;;0.50;0.50;;;;;;;;;;1878515;75;26222;-86
2022/07/23 07:22:20;;;;;;;0.50;0.50;;;;;;;;;;1888620;76;26194;-87
2022/07/23 07:24:47;;;;;;;0.40;0.40;;;;;;;;;;1888587;75;26274;-89
2022/07/23 07:27:14;;;;;;;0.50;0.50;;;;;;;;;;1895643;75;26301;-88
2022/07/23 07:29:42;;;;;;;0.40;0.40;;;;;;;;;;1873443;75;26159;-89
2022/07/23 07:32:09;;;;;;;0.53;0.53;;;;;;;;;;1875276;76;26239;-85
2022/07/23 07:34:36;;;;;;;0.50;0.50;;;;;;;;;;1868517;75;26171;-88
2022/07/23 07:37:03;;;;;;;0.50;0.50;;;;;;;;;;1887133;75;26241;-88
2022/07/23 07:39:31;;;;;;;0.40;0.40;;;;;;;;;;1868707;76;26260;-87
2022/07/23 07:41:58;;;;;;;0.65;0.65;;;;;;;;;;1885978;75;26272;-87
2022/07/23 07:44:25;;;;;;;0.50;0.50;;;;;;;;;;1887732;75;26191;-87
2022/07/23 07:46:53;;;;;;;0.40;0.40;;;;;;;;;;1879352;75;26187;-87
2022/07/23 07:49:20;;;;;;;0.50;0.50;;;;;;;;;;1884107;75;26166;-89
2022/07/23 07:51:47;;;;;;;0.40;0.40;;;;;;;;;;1876981;75;26179;-88
2022/07/23 07:54:14;;;;;;;0.42;0.42;;;;;;;;;;1883521;75;26288;-88
2022/07/23 07:56:42;;;;;;;0.40;0.40;;;;;;;;;;1874192;75;26593;-88
2022/07/23 07:59:10;;;;;;;0.40;0.40;;;;;;;;;;1895613;75;26639;-87
2022/07/23 08:01:38;;;;;;;0.40;0.40;;;;;;;;;;1889213;75;26258;-87
2022/07/23 08:04:05;;;;;;;0.45;0.45;;;;;;;;;;1883212;75;26628;-87
2022/07/23 08:06:32;;;;;;;0.40;0.40;;;;;;;;;;1882555;75;26242;-88
2022/07/23 08:09:00;;;;;;;0.40;0.40;;;;;;;;;;1883774;75;26203;-86
2022/07/23 08:11:27;;;;;;;0.40;0.40;;;;;;;;;;1888106;75;26200;-87
2022/07/23 08:13:54;;;;;;;0.40;0.40;;;;;;;;;;1897138;75;26207;-86
2022/07/23 08:16:21;;;;;;;0.40;0.40;;;;;;;;;;1874027;75;26217;-87
2022/07/23 08:18:49;;;;;;;0.40;0.40;;;;;;;;;;1896420;75;26212;-86
2022/07/23 08:21:16;;;;;;;0.30;0.30;;;;;;;;;;1869888;75;26269;-86
2022/07/23 08:23:43;;;;;;;0.40;0.40;;;;;;;;;;1892836;75;26170;-87
2022/07/23 08:26:10;;;;;;;0.50;0.50;;;;;;;;;;1886414;76;26262;-87
2022/07/23 08:28:38;;;;;;;0.40;0.40;;;;;;;;;;1895810;75;26270;-88
2022/07/23 08:31:05;;;;;;;0.40;0.40;;;;;;;;;;1893431;75;26211;-88
2022/07/23 08:33:32;;;;;;;0.40;0.40;;;;;;;;;;1881526;75;26227;-88
2022/07/23 08:36:02;;;;;;;0.30;0.30;;;;;;;;;;1865659;75;26295;-87
2022/07/23 08:38:29;;;;;;;0.35;0.35;;;;;;;;;;1877567;76;26813;-88
2022/07/23 08:40:59;;;;;;;0.30;0.30;;;;;;;;;;1889822;75;26639;-88
2022/07/23 08:43:28;;;;;;;0.30;0.30;;;;;;;;;;1872420;75;26211;-88
2022/07/23 08:45:56;;;;;;;0.40;0.40;;;;;;;;;;1864923;75;26206;-87
2022/07/23 08:48:25;;;;;;;0.40;0.40;;;;;;;;;;1869423;75;26265;-89
2022/07/23 08:50:54;;;;;;;0.30;0.30;;;;;;;;;;1889043;75;26683;-87
2022/07/23 08:53:22;;;;;;;0.40;0.40;;;;;;;;;;1875396;75;26187;-88
2022/07/23 08:55:53;;;;;;;0.33;0.33;;;;;;;;;;1894053;76;25673;-88
2022/07/23 08:58:21;;;;;;;0.30;0.30;;;;;;;;;;1888998;75;26624;-87
2022/07/23 09:00:49;;;;;;;0.23;0.23;;;;;;;;;;1886944;75;26261;-88
2022/07/23 09:03:20;;;;;;;0.30;0.30;;;;;;;;;;1871214;76;26190;-88
2022/07/23 09:05:48;;;;;;;0.30;0.30;;;;;;;;;;1888685;75;26286;-87
2022/07/23 09:08:16;;;;;;;0.40;0.40;;;;;;;;;;1872674;75;26274;-86
2022/07/23 09:10:47;;;;;;;0.40;0.40;;;;;;;;;;1882321;75;26208;-87
2022/07/23 09:13:25;;;;;;;0.20;0.20;;;;;;;;;;1884282;75;26205;-89
2022/07/23 09:15:54;;;;;;;0.45;0.45;;;;;;;;;;1894381;75;26236;-87
2022/07/23 09:18:31;;;;;;;0.30;0.30;;;;;;;;;;1889545;75;26283;-87
2022/07/23 09:21:08;;;;;;;0.30;0.30;;;;;;;;;;1880396;75;26340;-87
2022/07/23 09:23:43;;;;;;;0.30;0.30;;;;;;;;;;1878697;75;26739;-87
2022/07/23 09:26:21;;;;;;;0.33;0.33;;;;;;;;;;1886467;75;26237;-88
2022/07/23 09:28:52;;;;;;;0.23;0.23;;;;;;;;;;1883946;76;26348;-86
2022/07/23 09:31:20;;;;;;;0.30;0.30;;;;;;;;;;1885036;76;26650;-88
2022/07/23 09:33:47;;;;;;;0.30;0.30;;;;;;;;;;1868052;75;26636;-87
2022/07/23 09:36:14;;;;;;;0.30;0.30;;;;;;;;;;1884087;75;26281;-87
2022/07/23 09:38:48;;;;;;;0.30;0.30;;;;;;;;;;1885375;75;26177;-88
2022/07/23 09:41:16;;;;;;;0.28;0.28;;;;;;;;;;1886295;75;26265;-88
2022/07/23 09:43:44;;;;;;;0.30;0.30;;;;;;;;;;1885077;75;26227;-88
2022/07/23 09:46:19;;;;;;;0.40;0.40;;;;;;;;;;1892509;75;26295;-88
2022/07/23 09:48:47;;;;;;;0.30;0.30;;;;;;;;;;1891244;75;26195;-87
2022/07/23 09:51:18;;;;;;;0.30;0.30;;;;;;;;;;1870296;75;26265;-86
2022/07/23 09:53:43;;;;;;;0.30;0.30;;;;;;;;;;1887058;75;26243;-88
2022/07/23 09:56:12;;;;;;;0.30;0.30;;;;;;;;;;1876101;75;26210;-87
2022/07/23 09:59:01;;;;;;;0.25;0.25;;;;;;;;;;1893096;75;26236;-88
2022/07/23 10:01:21;;;;;;;0.20;0.20;;;;;;;;;;1884996;75;26368;-87
2022/07/23 10:03:48;;;;;;;0.30;0.30;;;;;;;;;;1893065;75;26607;-88
2022/07/23 10:06:16;;;;;;;0.30;0.30;;;;;;;;;;1865270;76;26202;-88
2022/07/23 10:08:45;;;;;;;0.20;0.20;;;;;;;;;;1885386;75;26248;-87
2022/07/23 10:11:14;;;;;;;0.30;0.30;;;;;;;;;;1884285;76;26200;-87
2022/07/23 10:13:54;;;;;;;0.10;0.10;;;;;;;;;;1898541;75;26195;-88
2022/07/23 10:16:20;;;;;;;0.20;0.20;;;;;;;;;;1874222;75;26292;-88
2022/07/23 10:18:48;;;;;;;0.20;0.20;;;;;;;;;;1873940;75;26344;-87
2022/07/23 10:21:16;;;;;;;0.30;0.30;;;;;;;;;;1879144;75;26257;-86
2022/07/23 10:23:46;;;;;;;0.23;0.23;;;;;;;;;;1891178;75;26208;-87
2022/07/23 10:26:14;;;;;;;0.20;0.20;;;;;;;;;;1888601;75;26216;-88
2022/07/23 10:28:49;;;;;;;0.30;0.30;;;;;;;;;;1887355;75;26215;-88
2022/07/23 10:31:22;;;;;;;0.30;0.30;;;;;;;;;;1890670;75;26203;-86
2022/07/23 10:33:57;;;;;;;0.25;0.25;;;;;;;;;;1884336;75;26276;-88
2022/07/23 10:36:25;;;;;;;0.23;0.23;;;;;;;;;;1875482;75;26207;-88
2022/07/23 10:39:00;;;;;;;0.20;0.20;;;;;;;;;;1883204;75;26379;-85
2022/07/23 10:41:34;;;;;;;0.20;0.20;;;;;;;;;;1872655;74;26341;-86
2022/07/23 10:44:15;;;;;;;0.15;0.15;;;;;;;;;;1877319;73;26259;-86
2022/07/23 10:49:44;;;;;;;0.20;0.20;;;;;;;;;;1877195;73;26251;-86
2022/07/23 10:52:16;;;;;;;0.20;0.20;;;;;;;;;;1875416;75;26238;-87
2022/07/23 10:54:44;;;;;;;0.28;0.28;;;;;;;;;;1894103;75;26610;-88
2022/07/23 10:57:12;;;;;;;0.20;0.20;;;;;;;;;;1886623;73;26231;-87
2022/07/23 10:59:57;;;;;;;0.20;0.20;;;;;;;;;;1898322;75;26251;-90
2022/07/23 11:02:26;;;;;;;0.28;0.28;;;;;;;;;;1888534;75;26185;-89
2022/07/23 11:04:53;;;;;;;0.20;0.20;;;;;;;;;;1893101;75;26260;-89
2022/07/23 11:07:20;;;;;;;0.20;0.20;;;;;;;;;;1874533;75;26627;-88
2022/07/23 11:09:48;;;;;;;0.30;0.30;;;;;;;;;;1871641;75;26280;-88
2022/07/23 11:12:19;;;;;;;0.30;0.30;;;;;;;;;;1897303;75;26216;-89
2022/07/23 11:14:59;;;;;;;0.28;0.28;;;;;;;;;;1885795;75;26811;-88
2022/07/23 11:17:27;;;;;;;0.20;0.20;;;;;;;;;;1891116;76;26799;-87
2022/07/23 11:20:12;;;;;;;0.20;0.20;;;;;;;;;;1876498;75;26190;-87
2022/07/23 11:22:41;;;;;;;0.10;0.10;;;;;;;;;;1882030;75;26284;-87
2022/07/23 11:25:08;;;;;;;0.20;0.20;;;;;;;;;;1865219;75;26210;-88
2022/07/23 11:27:39;;;;;;;0.20;0.20;;;;;;;;;;1895399;75;26277;-89
2022/07/23 11:30:08;;;;;;;0.10;0.10;;;;;;;;;;1885463;75;26674;-87
2022/07/23 11:32:38;;;;;;;0.10;0.10;;;;;;;;;;1883307;75;26268;-87
2022/07/23 11:35:07;;;;;;;0.20;0.20;;;;;;;;;;1888691;74;26224;-88
2022/07/23 11:37:39;;;;;;;0.30;0.30;;;;;;;;;;1870100;75;26250;-88
2022/07/23 11:40:10;;;;;;;0.20;0.20;;;;;;;;;;1888925;75;26321;-87
2022/07/23 11:42:38;;;;;;;0.20;0.20;;;;;;;;;;1893979;75;27107;-87
2022/07/23 11:45:07;;;;;;;0.30;0.30;;;;;;;;;;1880537;76;26244;-87
2022/07/23 11:47:35;;;;;;;0.20;0.20;;;;;;;;;;1891105;75;26211;-87
2022/07/23 11:50:03;;;;;;;0.20;0.20;;;;;;;;;;1879242;76;26229;-87
2022/07/23 11:52:31;;;;;;;0.20;0.20;;;;;;;;;;1899984;75;26235;-88
2022/07/23 11:55:00;;;;;;;0.20;0.20;;;;;;;;;;1892510;75;26834;-87
2022/07/23 11:57:28;;;;;;;0.30;0.30;;;;;;;;;;1868560;75;26207;-88
2022/07/23 11:59:57;;;;;;;0.28;0.28;;;;;;;;;;1895608;75;26268;-87
2022/07/23 12:02:25;;;;;;;0.30;0.30;;;;;;;;;;1878779;75;26711;-88
2022/07/23 12:04:54;;;;;;;0.20;0.20;;;;;;;;;;1881813;76;26652;-87
2022/07/23 12:07:40;;;;;;;0.20;0.20;;;;;;;;;;1882816;75;26245;-88
2022/07/23 12:10:15;;;;;;;0.30;0.30;;;;;;;;;;1865171;76;26284;-87
2022/07/23 12:12:44;;;;;;;0.23;0.23;;;;;;;;;;1881786;75;26191;-88
2022/07/23 12:15:12;;;;;;;0.20;0.20;;;;;;;;;;1878504;75;26202;-87
2022/07/23 12:17:41;;;;;;;0.30;0.30;;;;;;;;;;1895675;75;26203;-87
2022/07/23 12:20:10;;;;;;;0.20;0.20;;;;;;;;;;1880165;75;26332;-87
2022/07/23 12:22:42;;;;;;;0.20;0.20;;;;;;;;;;1886313;75;26270;-87
2022/07/23 12:25:19;;;;;;;0.30;0.30;;;;;;;;;;1870137;75;26658;-88
2022/07/23 12:27:48;;;;;;;0.30;0.30;;;;;;;;;;1899672;75;26273;-88
2022/07/23 12:30:19;;;;;;;0.20;0.20;;;;;;;;;;1893404;75;26250;-87
2022/07/23 12:32:48;;;;;;;0.20;0.20;;;;;;;;;;1875331;75;26194;-87
2022/07/23 12:35:16;;;;;;;0.42;0.42;;;;;;;;;;1870657;75;26200;-87
2022/07/23 12:37:44;;;;;;;0.23;0.23;;;;;;;;;;1883421;75;26631;-88
2022/07/23 12:40:25;;;;;;;0.30;0.30;;;;;;;;;;1893102;75;26276;-87
2022/07/23 12:42:54;;;;;;;0.30;0.30;;;;;;;;;;1888482;75;26190;-87
2022/07/23 12:45:22;;;;;;;0.23;0.23;;;;;;;;;;1870239;75;26234;-88
2022/07/23 12:47:58;;;;;;;0.28;0.28;;;;;;;;;;1901827;74;26244;-88
2022/07/23 12:50:32;;;;;;;0.33;0.33;;;;;;;;;;1890491;75;26667;-88
2022/07/23 12:53:04;;;;;;;0.20;0.20;;;;;;;;;;1888441;76;26719;-87
2022/07/23 12:55:31;;;;;;;0.30;0.30;;;;;;;;;;1872731;75;26267;-88
2022/07/23 12:58:10;;;;;;;0.20;0.20;;;;;;;;;;1895240;75;26211;-87
2022/07/23 13:00:51;;;;;;;0.30;0.30;;;;;;;;;;1873804;75;26234;-87
2022/07/23 13:03:22;;;;;;;0.20;0.20;;;;;;;;;;1882385;76;26211;-88
2022/07/23 13:05:50;;;;;;;0.30;0.30;;;;;;;;;;1888153;74;26192;-87
2022/07/23 13:08:17;;;;;;;0.30;0.30;;;;;;;;;;1868960;75;26191;-88
2022/07/23 13:10:48;;;;;;;0.20;0.20;;;;;;;;;;1879378;75;26176;-88
2022/07/23 13:13:13;;;;;;;0.33;0.33;;;;;;;;;;1881403;75;26258;-88
2022/07/23 13:15:40;;;;;;;0.30;0.30;;;;;;;;;;1877098;75;26737;-88
2022/07/23 13:18:08;;;;;;;0.40;0.40;;;;;;;;;;1892121;75;27137;-88
2022/07/23 13:20:36;;;;;;;0.40;0.40;;;;;;;;;;1886417;75;26203;-88
2022/07/23 13:23:03;;;;;;;0.30;0.30;;;;;;;;;;1877340;75;27058;-88
2022/07/23 13:25:30;;;;;;;0.30;0.30;;;;;;;;;;1892597;75;26609;-88
2022/07/23 13:27:58;;;;;;;0.30;0.30;;;;;;;;;;1893231;75;26289;-89
2022/07/23 13:30:25;;;;;;;0.30;0.30;;;;;;;;;;1891847;75;26249;-88
2022/07/23 13:32:52;;;;;;;0.40;0.40;;;;;;;;;;1876876;75;26963;-88
2022/07/23 13:35:20;;;;;;;0.35;0.35;;;;;;;;;;1867766;75;26252;-88
2022/07/23 13:37:47;;;;;;;0.40;0.40;;;;;;;;;;1878126;75;26265;-88
2022/07/23 13:40:14;;;;;;;0.37;0.37;;;;;;;;;;1883972;75;26190;-88
2022/07/23 13:42:41;;;;;;;0.42;0.42;;;;;;;;;;1877360;75;26615;-88
2022/07/23 13:45:09;;;;;;;0.30;0.30;;;;;;;;;;1895640;75;26620;-87
2022/07/23 13:47:36;;;;;;;0.30;0.30;;;;;;;;;;1874776;75;26187;-88
2022/07/23 13:50:04;;;;;;;0.40;0.40;;;;;;;;;;1896418;75;26203;-87
2022/07/23 13:52:33;;;;;;;0.40;0.40;;;;;;;;;;1874906;74;26661;-88
2022/07/23 13:55:04;;;;;;;0.30;0.30;;;;;;;;;;1891207;75;26830;-88
2022/07/23 13:57:32;;;;;;;0.30;0.30;;;;;;;;;;1887135;75;26207;-88
2022/07/23 13:59:59;;;;;;;0.40;0.40;;;;;;;;;;1885498;75;26190;-88
2022/07/23 14:02:27;;;;;;;0.30;0.30;;;;;;;;;;1881750;74;26188;-88
2022/07/23 14:04:54;;;;;;;0.40;0.40;;;;;;;;;;1885464;75;26644;-88
2022/07/23 14:07:21;;;;;;;0.35;0.35;;;;;;;;;;1896409;75;26609;-88
2022/07/23 14:09:49;;;;;;;0.40;0.40;;;;;;;;;;1874696;75;26278;-85
2022/07/23 14:12:16;;;;;;;0.40;0.40;;;;;;;;;;1881933;75;26615;-88
2022/07/23 14:14:43;;;;;;;0.40;0.40;;;;;;;;;;1873260;75;26160;-86
2022/07/23 14:17:10;;;;;;;0.40;0.40;;;;;;;;;;1886305;75;26272;-87
2022/07/23 14:19:38;;;;;;;0.30;0.30;;;;;;;;;;1878842;75;26183;-87
2022/07/23 14:22:05;;;;;;;0.40;0.40;;;;;;;;;;1884346;76;26202;-87
2022/07/23 14:24:32;;;;;;;0.50;0.50;;;;;;;;;;1866758;76;26202;-87
2022/07/23 14:27:01;;;;;;;0.33;0.33;;;;;;;;;;1862987;75;26276;-87
2022/07/23 14:29:29;;;;;;;0.40;0.40;;;;;;;;;;1891061;75;26188;-88
2022/07/23 14:31:57;;;;;;;0.33;0.33;;;;;;;;;;1882207;74;26302;-88
2022/07/23 14:34:24;;;;;;;0.50;0.50;;;;;;;;;;1883868;75;26685;-88
2022/07/23 14:36:52;;;;;;;0.28;0.28;;;;;;;;;;1880699;75;26197;-86
2022/07/23 14:39:19;;;;;;;0.35;0.35;;;;;;;;;;1878890;75;26626;-87
2022/07/23 14:41:47;;;;;;;0.30;0.30;;;;;;;;;;1890514;75;26196;-87
2022/07/23 14:44:14;;;;;;;0.40;0.40;;;;;;;;;;1886660;75;26182;-89
2022/07/23 14:46:41;;;;;;;0.40;0.40;;;;;;;;;;1878129;76;26719;-87
2022/07/23 14:49:09;;;;;;;0.40;0.40;;;;;;;;;;1891550;75;26219;-87
2022/07/23 14:51:36;;;;;;;0.50;0.50;;;;;;;;;;1874184;75;25593;-85